Time;durP1;ratioP1;P1;durP2;ratioP2;P2;SDS_P1;SDS_P2;PMS_P1;PMS_P2;Temp;Humidity;BMP_temperature;BMP_pressure;BME280_temperature;BME280_humidity;BME280_pressure;Samples;Min_cycle;Max_cycle;Signal;HPM_P1;HPM_P2
2022/12/13 00:01:33;;;;;;;18.33;11.02;;;-3.00;1.00;;;;;;5103254;28;20187;-79
2022/12/13 00:04:04;;;;;;;15.88;11.25;;;-3.00;99.90;;;;;;5102405;28;20254;-79
2022/12/13 00:06:33;;;;;;;20.38;11.70;;;-2.90;93.00;;;;;;5097801;27;20285;-78
2022/12/13 00:09:02;;;;;;;15.60;11.55;;;-2.90;99.90;;;;;;5094998;28;20253;-80
2022/12/13 00:11:32;;;;;;;18.00;11.95;;;-2.90;99.90;;;;;;5099423;28;20193;-79
2022/12/13 00:14:00;;;;;;;15.77;10.55;;;-2.90;99.90;;;;;;5099275;27;20615;-79
2022/12/13 00:16:28;;;;;;;16.35;12.40;;;-2.80;96.20;;;;;;5093858;28;20199;-80
2022/12/13 00:18:59;;;;;;;21.55;11.52;;;-2.70;40.20;;;;;;5094740;28;20211;-78
2022/12/13 00:21:29;;;;;;;18.25;12.02;;;-2.70;2.50;;;;;;5100578;28;20247;-79
2022/12/13 00:23:58;;;;;;;17.50;11.13;;;-2.80;1.00;;;;;;5094908;28;20335;-79
2022/12/13 00:26:29;;;;;;;13.77;10.70;;;-2.90;99.90;;;;;;5093546;28;20212;-80
2022/12/13 00:28:59;;;;;;;15.35;11.00;;;-2.80;38.70;;;;;;5095886;28;20298;-81
2022/12/13 00:31:30;;;;;;;15.73;12.70;;;-2.80;90.10;;;;;;5097095;28;20203;-80
2022/12/13 00:34:18;;;;;;;18.42;11.75;;;-2.70;54.20;;;;;;5097274;28;20223;-81
2022/12/13 00:36:47;;;;;;;15.80;12.32;;;-2.80;5.70;;;;;;5098690;28;20653;-79
2022/12/13 00:39:15;;;;;;;17.13;11.48;;;-2.80;14.90;;;;;;5097306;28;21001;-79
2022/12/13 00:41:44;;;;;;;17.48;11.95;;;-2.80;20.40;;;;;;5092188;28;20674;-79
2022/12/13 00:44:14;;;;;;;19.50;12.68;;;-2.80;1.00;;;;;;5092064;28;20630;-80
2022/12/13 00:46:43;;;;;;;17.25;11.27;;;-2.70;1.00;;;;;;5097042;27;20191;-77
2022/12/13 00:49:12;;;;;;;20.10;11.60;;;-2.80;1.00;;;;;;5090213;28;20220;-79
2022/12/13 00:51:41;;;;;;;17.88;12.02;;;-2.90;1.00;;;;;;5098230;27;20192;-79
2022/12/13 00:54:10;;;;;;;20.73;13.02;;;-3.10;1.00;;;;;;5093056;28;20227;-79
2022/12/13 00:56:38;;;;;;;15.48;13.27;;;-3.00;1.00;;;;;;5095306;28;20285;-80
2022/12/13 00:59:06;;;;;;;22.35;13.38;;;-3.10;1.00;;;;;;5097578;27;20289;-78
2022/12/13 01:01:36;;;;;;;15.20;11.73;;;-3.20;1.00;;;;;;5097148;27;20206;-79
2022/12/13 01:04:06;;;;;;;15.43;11.77;;;-3.20;1.00;;;;;;5093621;28;20278;-79
2022/12/13 01:06:37;;;;;;;20.85;14.35;;;-3.30;1.00;;;;;;5107864;27;20828;-79
2022/12/13 01:09:09;;;;;;;18.40;11.70;;;-3.40;1.00;;;;;;5094812;28;20275;-78
2022/12/13 01:11:37;;;;;;;17.58;12.70;;;-3.40;1.00;;;;;;5095278;27;20258;-78
2022/12/13 01:14:05;;;;;;;15.32;12.55;;;-3.60;1.00;;;;;;5095940;27;20256;-79
2022/12/13 01:16:33;;;;;;;20.92;11.90;;;-3.60;1.00;;;;;;5115542;27;20996;-78
2022/12/13 01:19:03;;;;;;;16.48;11.13;;;-3.70;1.00;;;;;;5094139;28;20197;-77
2022/12/13 01:21:31;;;;;;;19.00;12.57;;;-3.80;1.00;;;;;;5101083;27;20202;-79
2022/12/13 01:24:04;;;;;;;17.02;12.85;;;-3.70;1.00;;;;;;5103170;27;20331;-79
2022/12/13 01:26:32;;;;;;;18.02;11.57;;;-3.70;1.00;;;;;;5095849;28;20262;-78
2022/12/13 01:29:00;;;;;;;14.05;11.55;;;-3.70;1.00;;;;;;5098048;27;20288;-80
2022/12/13 01:31:29;;;;;;;20.90;12.50;;;-3.80;1.00;;;;;;5101075;27;20258;-79
2022/12/13 01:33:57;;;;;;;20.73;11.95;;;-3.80;1.00;;;;;;5090841;28;20268;-78
2022/12/13 01:36:27;;;;;;;18.05;13.48;;;-3.90;1.00;;;;;;5094959;28;20190;-80
2022/12/13 01:38:56;;;;;;;22.27;13.73;;;-3.90;1.00;;;;;;5092585;28;20205;-79
2022/12/13 01:41:26;;;;;;;16.35;12.38;;;-3.90;1.00;;;;;;5095209;28;20284;-80
2022/12/13 01:43:59;;;;;;;18.48;13.00;;;-4.00;1.00;;;;;;5093436;28;20332;-78
2022/12/13 01:46:28;;;;;;;19.02;12.70;;;-4.00;1.00;;;;;;5094797;28;20229;-79
2022/12/13 01:49:02;;;;;;;14.93;12.35;;;-4.10;1.00;;;;;;5091148;28;20215;-77
2022/12/13 01:51:38;;;;;;;21.08;12.20;;;-4.10;1.00;;;;;;5093625;28;20195;-77
2022/12/13 01:54:09;;;;;;;17.17;12.43;;;-4.20;1.00;;;;;;5090007;28;20861;-80
2022/12/13 01:56:42;;;;;;;20.33;12.75;;;-4.30;1.00;;;;;;5097449;28;20199;-79
2022/12/13 01:59:16;;;;;;;18.05;12.23;;;-4.30;1.00;;;;;;5092896;28;20298;-79
2022/12/13 02:01:45;;;;;;;19.52;12.80;;;-4.30;1.00;;;;;;5090762;28;20196;-79
2022/12/13 02:04:15;;;;;;;14.05;11.27;;;-4.40;1.00;;;;;;5093980;28;20251;-79
2022/12/13 02:06:45;;;;;;;20.38;12.65;;;-4.40;1.00;;;;;;5099823;28;20196;-78
2022/12/13 02:09:14;;;;;;;20.13;12.93;;;-4.20;1.00;;;;;;5094453;28;20361;-78
2022/12/13 02:11:44;;;;;;;16.63;11.43;;;-4.20;1.00;;;;;;5090393;28;20199;-76
2022/12/13 02:14:12;;;;;;;18.77;12.50;;;-4.30;1.00;;;;;;5093886;28;21492;-78
2022/12/13 02:16:51;;;;;;;22.13;13.02;;;-4.50;1.00;;;;;;5102718;28;20231;-78
2022/12/13 02:19:53;;;;;;;21.20;12.80;;;-4.50;1.00;;;;;;5098373;28;20216;-78
2022/12/13 02:22:44;;;;;;;21.67;13.68;;;-4.30;1.00;;;;;;5088960;28;20216;-78
2022/12/13 02:25:40;;;;;;;21.35;12.35;;;-4.30;1.00;;;;;;5088159;28;20211;-78
2022/12/13 02:28:25;;;;;;;19.77;12.70;;;-4.40;1.00;;;;;;5094950;28;20205;-80
2022/12/13 02:31:06;;;;;;;23.05;13.45;;;-4.60;1.00;;;;;;5093747;28;20559;-79
2022/12/13 02:33:43;;;;;;;18.27;12.23;;;-4.60;1.00;;;;;;5094005;28;20281;-80
2022/12/13 02:36:16;;;;;;;16.75;13.00;;;-4.50;1.00;;;;;;5091884;28;20596;-78
2022/12/13 02:38:52;;;;;;;19.70;12.00;;;-4.60;1.00;;;;;;5091173;28;20194;-78
2022/12/13 02:41:27;;;;;;;21.35;13.55;;;-4.70;1.00;;;;;;5087431;28;20215;-79
2022/12/13 02:43:59;;;;;;;16.58;12.73;;;-4.70;1.00;;;;;;5092102;28;20214;-77
2022/12/13 02:46:34;;;;;;;17.92;12.02;;;-4.80;1.00;;;;;;5091323;28;20199;-77
2022/12/13 02:49:04;;;;;;;18.17;12.00;;;-4.70;1.00;;;;;;5093441;28;20219;-78
2022/12/13 02:51:34;;;;;;;20.98;13.48;;;-4.70;1.00;;;;;;5095753;28;20675;-80
2022/12/13 02:54:03;;;;;;;19.95;12.40;;;-4.70;1.00;;;;;;5089096;28;20210;-78
2022/12/13 02:56:31;;;;;;;21.17;13.45;;;-4.60;1.00;;;;;;5097427;28;20308;-79
2022/12/13 02:59:02;;;;;;;18.58;13.10;;;-4.70;1.00;;;;;;5097240;28;20418;-79
2022/12/13 03:01:46;;;;;;;19.70;14.15;;;-4.40;99.90;;;;;;5096464;28;20254;-79
2022/12/13 03:04:27;;;;;;;22.98;14.68;;;-4.30;99.90;;;;;;5106448;27;20703;-79
2022/12/13 03:07:05;;;;;;;22.55;12.90;;;-4.30;99.90;;;;;;5096729;27;20207;-77
2022/12/13 03:09:46;;;;;;;20.65;13.23;;;-4.20;99.90;;;;;;5091593;28;20201;-77
2022/12/13 03:15:20;;;;;;;21.00;12.80;;;-3.90;99.90;;;;;;5097754;27;20290;-78
2022/12/13 03:17:52;;;;;;;20.15;13.95;;;-4.00;99.90;;;;;;5089562;28;20832;-78
2022/12/13 03:20:24;;;;;;;17.95;13.10;;;-4.00;99.90;;;;;;5101060;27;20720;-78
2022/12/13 03:22:53;;;;;;;22.15;12.98;;;-4.00;99.90;;;;;;5097507;28;20236;-80
2022/12/13 03:25:22;;;;;;;20.50;12.68;;;-3.90;99.90;;;;;;5095201;28;20297;-78
2022/12/13 03:28:00;;;;;;;20.85;13.65;;;-3.90;99.90;;;;;;5099568;28;20283;-78
2022/12/13 03:30:30;;;;;;;19.80;12.88;;;-4.00;99.90;;;;;;5097751;28;20207;-77
2022/12/13 03:33:00;;;;;;;19.88;13.35;;;-3.90;99.90;;;;;;5093614;28;20229;-78
2022/12/13 03:35:29;;;;;;;19.50;13.02;;;-3.80;99.90;;;;;;5092152;28;20202;-79
2022/12/13 03:38:11;;;;;;;19.42;13.18;;;-3.80;78.90;;;;;;5096175;28;20202;-78
2022/12/13 03:40:51;;;;;;;21.48;13.73;;;-3.80;74.30;;;;;;5095838;28;20199;-77
2022/12/13 03:43:20;;;;;;;24.08;13.32;;;-3.90;54.70;;;;;;5101430;27;20221;-79
2022/12/13 03:45:50;;;;;;;21.80;14.63;;;-3.90;29.30;;;;;;5098815;27;20760;-76
2022/12/13 03:48:20;;;;;;;16.08;11.63;;;-4.00;79.60;;;;;;5097531;28;20206;-78
2022/12/13 03:50:51;;;;;;;20.13;11.50;;;-4.00;99.90;;;;;;5099829;28;20601;-77
2022/12/13 03:53:19;;;;;;;20.50;12.10;;;-3.90;99.90;;;;;;5099757;27;20221;-78
2022/12/13 03:56:01;;;;;;;17.33;11.23;;;-3.90;73.00;;;;;;5098349;28;20194;-77
2022/12/13 03:58:30;;;;;;;21.13;12.55;;;-3.90;64.20;;;;;;5101112;28;20223;-79
2022/12/13 04:01:05;;;;;;;15.02;11.18;;;-4.00;73.70;;;;;;5096730;28;20201;-78
2022/12/13 04:03:35;;;;;;;16.58;12.75;;;-4.00;18.50;;;;;;5100676;27;20220;-78
2022/12/13 04:06:04;;;;;;;20.38;11.57;;;-4.00;41.00;;;;;;5094488;27;20224;-77
2022/12/13 04:08:33;;;;;;;17.30;12.82;;;-4.00;1.00;;;;;;5097679;27;20338;-80
2022/12/13 04:13:31;;;;;;;16.63;10.93;;;-4.00;1.00;;;;;;5093083;28;20187;-78
2022/12/13 04:13:50;;;;;;;20.10;12.10;;;-4.10;1.00;;;;;;5097700;28;20214;-77
2022/12/13 04:16:19;;;;;;;16.13;11.40;;;-4.10;1.00;;;;;;5096614;27;20554;-79
2022/12/13 04:18:49;;;;;;;17.75;11.82;;;-4.00;43.10;;;;;;5100451;27;20193;-78
2022/12/13 04:21:17;;;;;;;19.17;11.25;;;-4.10;43.10;;;;;;5100961;27;20778;-79
2022/12/13 04:23:45;;;;;;;28.90;15.07;;;-4.10;47.90;;;;;;5100040;27;20219;-79
2022/12/13 04:26:13;;;;;;;27.17;18.92;;;-4.10;10.00;;;;;;5094852;28;20247;-79
2022/12/13 04:28:42;;;;;;;19.45;13.07;;;-4.10;1.00;;;;;;5097192;27;20895;-79
2022/12/13 04:31:10;;;;;;;24.90;15.98;;;-4.20;1.00;;;;;;5094992;28;20188;-78
2022/12/13 04:33:38;;;;;;;18.63;13.30;;;-4.40;1.00;;;;;;5097866;27;20219;-79
2022/12/13 04:36:08;;;;;;;16.27;13.30;;;-4.50;1.00;;;;;;5096899;28;20236;-77
2022/12/13 04:38:37;;;;;;;19.67;12.95;;;-4.60;1.00;;;;;;5104938;27;20353;-77
2022/12/13 04:41:07;;;;;;;23.45;14.45;;;-4.60;1.00;;;;;;5098041;28;20187;-78
2022/12/13 04:43:35;;;;;;;15.60;12.55;;;-4.70;1.00;;;;;;5097751;28;20231;-78
2022/12/13 04:46:03;;;;;;;24.25;14.60;;;-4.80;1.00;;;;;;5095859;27;20211;-79
2022/12/13 04:48:33;;;;;;;18.20;13.97;;;-4.90;1.00;;;;;;5107527;27;20570;-78
2022/12/13 04:51:02;;;;;;;27.25;14.82;;;-4.90;1.00;;;;;;5094710;28;20454;-80
2022/12/13 04:53:31;;;;;;;22.55;13.88;;;-5.10;1.00;;;;;;5098009;28;20912;-79
2022/12/13 04:56:02;;;;;;;18.95;13.60;;;-5.00;1.00;;;;;;5094062;28;20223;-79
2022/12/13 04:58:30;;;;;;;21.70;14.32;;;-5.00;1.00;;;;;;5099770;27;20204;-79
2022/12/13 05:00:58;;;;;;;16.70;11.60;;;-5.00;1.00;;;;;;5091962;28;20710;-78
2022/12/13 05:03:28;;;;;;;21.92;13.60;;;-5.10;1.00;;;;;;5099055;28;20227;-79
2022/12/13 05:05:56;;;;;;;23.67;13.65;;;-5.30;1.00;;;;;;5096146;27;20698;-78
2022/12/13 05:08:24;;;;;;;18.90;13.57;;;-5.20;1.00;;;;;;5103624;28;20256;-79
2022/12/13 05:10:55;;;;;;;16.90;12.32;;;-5.10;1.00;;;;;;5097876;27;20282;-79
2022/12/13 05:13:23;;;;;;;17.33;11.38;;;-5.20;1.00;;;;;;5100479;27;20307;-79
2022/12/13 05:15:55;;;;;;;19.48;12.57;;;-5.20;1.00;;;;;;5096474;28;20202;-79
2022/12/13 05:18:24;;;;;;;14.90;12.48;;;-5.20;1.00;;;;;;5099463;27;20216;-77
2022/12/13 05:20:52;;;;;;;19.30;13.02;;;-5.20;1.00;;;;;;5092796;28;20199;-78
2022/12/13 05:23:22;;;;;;;16.25;12.02;;;-5.30;1.00;;;;;;5098293;28;20219;-78
2022/12/13 05:25:50;;;;;;;16.90;11.85;;;-5.40;1.00;;;;;;5092763;28;20207;-78
2022/12/13 05:28:20;;;;;;;14.88;11.30;;;-5.40;1.00;;;;;;5097052;28;20289;-79
2022/12/13 05:30:56;;;;;;;20.08;13.60;;;-5.40;1.00;;;;;;5090263;28;20193;-78
2022/12/13 05:33:26;;;;;;;21.20;13.30;;;-5.30;1.00;;;;;;5098093;28;20215;-79
2022/12/13 05:35:54;;;;;;;19.85;12.43;;;-5.40;1.00;;;;;;5096633;28;20302;-78
2022/12/13 05:38:29;;;;;;;21.00;11.65;;;-5.40;1.00;;;;;;5099649;28;20195;-78
2022/12/13 05:40:57;;;;;;;16.67;11.73;;;-5.40;99.90;;;;;;5094267;28;20286;-79
2022/12/13 05:43:27;;;;;;;20.02;13.15;;;-5.50;1.00;;;;;;5097492;28;20288;-79
2022/12/13 05:46:10;;;;;;;18.30;10.98;;;-5.50;1.00;;;;;;5097646;28;20233;-79
2022/12/13 05:48:39;;;;;;;15.02;12.65;;;-5.60;1.00;;;;;;5088149;28;20748;-77
2022/12/13 05:51:08;;;;;;;19.20;12.50;;;-5.60;1.00;;;;;;5090544;28;20200;-76
2022/12/13 05:53:38;;;;;;;17.67;11.15;;;-5.50;1.00;;;;;;5090949;28;20227;-78
2022/12/13 05:56:07;;;;;;;20.52;12.18;;;-5.60;1.00;;;;;;5095633;28;20283;-78
2022/12/13 05:58:38;;;;;;;22.63;13.80;;;-5.50;1.00;;;;;;5093194;28;20211;-79
2022/12/13 06:01:08;;;;;;;18.08;13.00;;;-5.40;99.90;;;;;;5095889;28;20203;-78
2022/12/13 06:03:37;;;;;;;21.20;13.20;;;-5.40;99.90;;;;;;5092961;28;20223;-78
2022/12/13 06:06:07;;;;;;;24.13;15.18;;;-5.50;1.00;;;;;;5095838;28;20215;-79
2022/12/13 06:08:36;;;;;;;19.42;12.23;;;-5.40;1.00;;;;;;5094240;28;20241;-78
2022/12/13 06:11:06;;;;;;;16.48;12.20;;;-5.50;1.00;;;;;;5097649;28;20217;-79
2022/12/13 06:13:40;;;;;;;15.93;12.55;;;-5.60;1.00;;;;;;5098495;28;20216;-80
2022/12/13 06:16:12;;;;;;;16.52;12.40;;;-5.50;1.00;;;;;;5097328;28;20203;-80
2022/12/13 06:18:52;;;;;;;14.48;10.15;;;-5.60;1.00;;;;;;5092947;28;20195;-78
2022/12/13 06:21:31;;;;;;;17.85;12.05;;;-5.50;1.00;;;;;;5098194;28;20252;-79
2022/12/13 06:24:13;;;;;;;14.38;10.82;;;-5.60;1.00;;;;;;5090529;28;20222;-79
2022/12/13 06:26:41;;;;;;;15.25;11.32;;;-5.40;1.00;;;;;;5097476;28;20254;-80
2022/12/13 06:29:15;;;;;;;16.83;11.02;;;-5.40;1.00;;;;;;5098141;28;20204;-80
2022/12/13 06:31:56;;;;;;;15.55;9.02;;;-5.30;1.00;;;;;;5100385;28;20227;-81
2022/12/13 06:34:30;;;;;;;12.65;8.93;;;-5.20;1.00;;;;;;5100126;28;20272;-80
2022/12/13 06:36:59;;;;;;;16.15;10.45;;;-4.90;1.00;;;;;;5100265;27;20196;-80
2022/12/13 06:39:28;;;;;;;17.92;11.27;;;-4.80;1.00;;;;;;5090439;27;20815;-78
2022/12/13 06:42:13;;;;;;;13.18;9.50;;;-4.70;1.00;;;;;;5099060;28;20210;-80
2022/12/13 06:44:51;;;;;;;14.68;9.60;;;-4.70;1.00;;;;;;5106024;27;20192;-80
2022/12/13 06:47:23;;;;;;;15.60;10.65;;;-4.90;1.00;;;;;;5101566;27;20319;-80
2022/12/13 06:49:59;;;;;;;17.83;11.10;;;-4.90;1.00;;;;;;5100672;28;20197;-78
2022/12/13 06:52:33;;;;;;;16.55;10.30;;;-4.70;1.00;;;;;;5104624;27;20195;-80
2022/12/13 06:55:01;;;;;;;15.32;11.73;;;-4.80;1.00;;;;;;5100319;28;20199;-80
2022/12/13 06:57:31;;;;;;;17.50;11.00;;;-5.10;1.00;;;;;;5108813;27;20656;-80
2022/12/13 07:00:02;;;;;;;17.15;10.10;;;-5.00;1.00;;;;;;5096042;28;20281;-79
2022/12/13 07:02:31;;;;;;;15.55;10.00;;;-4.90;1.00;;;;;;5104269;27;20199;-80
2022/12/13 07:04:59;;;;;;;15.63;10.05;;;-4.70;1.00;;;;;;5102206;28;20659;-82
2022/12/13 07:07:28;;;;;;;17.08;11.05;;;-4.70;1.00;;;;;;5106328;27;20223;-80
2022/12/13 07:09:56;;;;;;;15.60;11.45;;;-4.60;1.00;;;;;;5097109;28;20659;-81
2022/12/13 07:12:24;;;;;;;21.13;11.85;;;-4.70;1.00;;;;;;5101775;27;20195;-80
2022/12/13 07:14:53;;;;;;;20.65;11.50;;;-4.70;1.00;;;;;;5099051;27;20200;-82
2022/12/13 07:17:23;;;;;;;20.77;12.65;;;-4.90;1.00;;;;;;5101427;28;20248;-79
2022/12/13 07:20:06;;;;;;;17.52;12.32;;;-5.00;1.00;;;;;;5100691;27;20201;-79
2022/12/13 07:22:36;;;;;;;21.75;12.20;;;-4.90;1.00;;;;;;5109129;27;20212;-80
2022/12/13 07:25:14;;;;;;;17.48;12.20;;;-5.00;1.00;;;;;;5101525;28;20196;-80
2022/12/13 07:27:58;;;;;;;19.73;12.88;;;-5.00;1.00;;;;;;5101007;27;20200;-77
2022/12/13 07:30:30;;;;;;;20.05;13.77;;;-5.00;1.00;;;;;;5098222;28;20192;-79
2022/12/13 07:33:01;;;;;;;19.00;12.63;;;-5.00;1.00;;;;;;5099558;28;20639;-79
2022/12/13 07:35:29;;;;;;;22.52;12.77;;;-4.90;1.00;;;;;;5102073;27;20188;-79
2022/12/13 07:38:04;;;;;;;20.13;12.85;;;-5.00;1.00;;;;;;5102302;27;20654;-78
2022/12/13 07:40:33;;;;;;;20.63;12.00;;;-5.00;1.00;;;;;;5095974;27;20679;-80
2022/12/13 07:43:01;;;;;;;19.00;13.75;;;-4.90;1.00;;;;;;5100515;28;20562;-80
2022/12/13 07:45:30;;;;;;;21.65;13.43;;;-4.90;1.00;;;;;;5100088;28;20266;-78
2022/12/13 07:48:03;;;;;;;22.75;13.52;;;-4.90;1.00;;;;;;5098884;28;20683;-79
2022/12/13 07:50:31;;;;;;;19.10;11.77;;;-4.90;1.00;;;;;;5097376;27;20200;-78
2022/12/13 07:53:06;;;;;;;22.02;12.40;;;-4.80;1.00;;;;;;5100195;27;20577;-78
2022/12/13 07:55:35;;;;;;;21.50;12.48;;;-4.80;99.90;;;;;;5095369;28;20207;-80
2022/12/13 07:58:04;;;;;;;18.23;13.68;;;-4.90;1.00;;;;;;5100962;28;20582;-80
2022/12/13 08:00:33;;;;;;;24.67;13.85;;;-4.90;1.00;;;;;;5096505;27;20195;-77
2022/12/13 08:03:03;;;;;;;26.27;13.60;;;-4.70;1.00;;;;;;5100093;27;20241;-80
2022/12/13 08:05:31;;;;;;;16.65;11.93;;;-4.70;1.00;;;;;;5102226;27;20789;-80
2022/12/13 08:08:09;;;;;;;21.08;14.30;;;-4.60;1.00;;;;;;5098973;28;20215;-80
2022/12/13 08:10:37;;;;;;;21.33;12.80;;;-4.50;1.00;;;;;;5095437;28;20197;-79
2022/12/13 08:13:06;;;;;;;21.83;13.70;;;-4.50;1.00;;;;;;5099541;27;20766;-80
2022/12/13 08:15:34;;;;;;;20.02;14.50;;;-4.40;1.00;;;;;;5098905;27;20203;-76
2022/12/13 08:18:04;;;;;;;24.23;16.48;;;-4.40;1.00;;;;;;5101822;27;20201;-78
2022/12/13 08:20:32;;;;;;;19.83;14.13;;;-4.40;99.90;;;;;;5104935;27;20183;-81
2022/12/13 08:23:00;;;;;;;24.70;14.63;;;-4.30;1.00;;;;;;5106882;28;20233;-78
2022/12/13 08:25:30;;;;;;;22.33;14.80;;;-4.30;1.00;;;;;;5104849;27;20260;-78
2022/12/13 08:27:58;;;;;;;20.60;13.65;;;-4.20;1.00;;;;;;5095283;28;20239;-80
2022/12/13 08:30:30;;;;;;;21.23;14.45;;;-4.10;99.90;;;;;;5100714;28;20219;-76
2022/12/13 08:32:58;;;;;;;20.65;14.40;;;-4.00;1.00;;;;;;5100874;27;20261;-78
2022/12/13 08:35:33;;;;;;;18.70;13.65;;;-3.90;1.00;;;;;;5102781;28;20532;-79
2022/12/13 08:38:03;;;;;;;23.83;15.50;;;-3.90;99.90;;;;;;5099110;28;20203;-79
2022/12/13 08:40:31;;;;;;;21.10;14.48;;;-3.60;1.00;;;;;;5094606;28;20201;-80
2022/12/13 08:43:00;;;;;;;21.92;14.50;;;-3.50;1.00;;;;;;5095152;28;20754;-79
2022/12/13 08:45:28;;;;;;;20.35;14.13;;;-3.40;99.90;;;;;;5096446;27;20251;-79
2022/12/13 08:47:58;;;;;;;18.15;12.40;;;-3.30;1.00;;;;;;5093814;27;20228;-79
2022/12/13 08:50:27;;;;;;;16.15;11.35;;;-3.20;1.00;;;;;;5096681;28;20206;-80
2022/12/13 08:52:57;;;;;;;19.38;11.77;;;-3.10;1.00;;;;;;5095819;28;20259;-80
2022/12/13 08:55:26;;;;;;;18.40;12.30;;;-2.90;1.00;;;;;;5100726;28;20200;-79
2022/12/13 08:57:59;;;;;;;20.67;13.82;;;-2.80;1.00;;;;;;5097976;28;20448;-81
2022/12/13 09:00:28;;;;;;;17.08;12.73;;;-2.90;1.00;;;;;;5101171;27;20196;-79
2022/12/13 09:03:04;;;;;;;13.68;10.32;;;-2.80;1.00;;;;;;5093631;28;20321;-81
2022/12/13 09:05:32;;;;;;;11.98;8.57;;;-2.60;1.00;;;;;;5098679;28;20677;-82
2022/12/13 09:08:04;;;;;;;15.05;11.82;;;-2.50;1.00;;;;;;5096264;28;20484;-81
2022/12/13 09:10:58;;;;;;;14.23;10.05;;;-2.40;1.00;;;;;;5099111;28;20687;-80
2022/12/13 09:13:28;;;;;;;13.45;9.65;;;-2.00;1.00;;;;;;5090175;28;20215;-81
2022/12/13 09:16:04;;;;;;;14.65;9.27;;;-2.00;99.90;;;;;;5098016;28;20303;-80
2022/12/13 09:18:41;;;;;;;15.88;9.75;;;-1.90;99.90;;;;;;5095077;28;20196;-81
2022/12/13 09:21:12;;;;;;;12.23;8.07;;;-1.80;99.90;;;;;;5094906;28;20643;-80
2022/12/13 09:23:50;;;;;;;12.50;9.13;;;-1.80;99.90;;;;;;5098044;28;20301;-80
2022/12/13 09:26:18;;;;;;;16.40;9.68;;;-1.90;99.90;;;;;;5093821;28;20211;-80
2022/12/13 09:28:52;;;;;;;15.27;9.98;;;-1.90;99.90;;;;;;5090213;28;20326;-80
2022/12/13 09:31:21;;;;;;;16.48;11.57;;;-1.90;99.90;;;;;;5092778;28;20195;-78
2022/12/13 09:33:49;;;;;;;12.23;9.07;;;-1.50;99.90;;;;;;5092311;28;20253;-81
2022/12/13 09:36:20;;;;;;;16.65;9.68;;;-1.00;99.90;;;;;;5087627;28;20368;-79
2022/12/13 09:38:51;;;;;;;13.90;9.82;;;-0.80;99.90;;;;;;5091411;28;20200;-80
2022/12/13 09:41:25;;;;;;;16.48;10.43;;;-0.80;99.90;;;;;;5092385;28;20200;-79
2022/12/13 09:44:00;;;;;;;15.73;9.65;;;-0.40;99.90;;;;;;5098633;28;20294;-79
2022/12/13 09:46:33;;;;;;;17.75;9.25;;;-0.20;99.90;;;;;;5088217;28;20196;-79
2022/12/13 09:49:17;;;;;;;13.60;9.50;;;-0.20;99.90;;;;;;5094462;28;20199;-78
2022/12/13 09:51:56;;;;;;;12.65;9.43;;;-0.10;99.90;;;;;;5090564;28;20210;-79
2022/12/13 09:54:40;;;;;;;15.50;9.55;;;0.30;99.90;;;;;;5085051;27;21022;-78
2022/12/13 09:57:19;;;;;;;18.90;10.85;;;0.50;99.90;;;;;;5090338;28;20188;-78
2022/12/13 10:00:02;;;;;;;13.88;9.48;;;0.50;99.90;;;;;;5085536;28;20218;-78
2022/12/13 10:02:33;;;;;;;17.33;9.90;;;0.60;99.90;;;;;;5083028;28;20281;-78
2022/12/13 10:05:15;;;;;;;17.15;9.90;;;0.70;99.90;;;;;;5088853;28;20286;-79
2022/12/13 10:07:54;;;;;;;16.02;9.18;;;0.80;99.90;;;;;;5097821;28;20207;-76
2022/12/13 10:10:24;;;;;;;14.70;10.45;;;1.10;99.90;;;;;;5091099;27;20204;-79
2022/12/13 10:12:58;;;;;;;19.58;10.13;;;1.30;99.90;;;;;;5093051;28;20650;-78
2022/12/13 10:15:28;;;;;;;15.10;10.00;;;1.30;99.90;;;;;;5095891;28;20691;-78
2022/12/13 10:17:58;;;;;;;18.10;9.32;;;1.40;99.90;;;;;;5105077;28;20232;-78
2022/12/13 10:20:28;;;;;;;13.98;9.48;;;1.40;99.90;;;;;;5095548;27;20210;-77
2022/12/13 10:22:56;;;;;;;12.15;8.07;;;1.30;99.90;;;;;;5095235;28;20215;-78
2022/12/13 10:25:49;;;;;;;14.65;8.65;;;1.30;99.90;;;;;;5090487;28;20196;-78
2022/12/13 10:28:26;;;;;;;13.63;8.68;;;1.20;99.90;;;;;;5094945;28;20223;-76
2022/12/13 10:30:55;;;;;;;13.55;9.15;;;0.40;99.90;;;;;;5091791;27;20191;-78
2022/12/13 10:33:26;;;;;;;12.35;8.13;;;0.40;99.90;;;;;;5093703;28;20703;-78
2022/12/13 10:36:07;;;;;;;13.13;8.63;;;0.80;99.90;;;;;;5093174;27;20355;-77
2022/12/13 10:38:38;;;;;;;11.50;8.48;;;1.00;99.90;;;;;;5094782;28;20195;-78
2022/12/13 10:41:35;;;;;;;11.93;7.50;;;1.20;99.90;;;;;;5092833;28;20234;-76
2022/12/13 10:44:24;;;;;;;12.15;7.15;;;1.30;99.90;;;;;;5092927;28;20230;-80
2022/12/13 10:47:02;;;;;;;13.57;8.70;;;1.20;99.90;;;;;;5096032;28;20208;-78
2022/12/13 10:49:38;;;;;;;11.43;8.10;;;1.20;99.90;;;;;;5096989;28;20203;-80
2022/12/13 10:52:08;;;;;;;11.95;8.15;;;1.30;99.90;;;;;;5100417;28;20350;-81
2022/12/13 10:54:38;;;;;;;15.82;9.25;;;1.30;99.90;;;;;;5100852;28;21134;-80
2022/12/13 10:57:18;;;;;;;12.23;8.32;;;1.10;99.90;;;;;;5102895;27;22034;-78
2022/12/13 10:59:48;;;;;;;14.55;8.75;;;1.40;99.90;;;;;;5099182;27;20263;-78
2022/12/13 11:02:30;;;;;;;10.25;7.68;;;1.50;99.90;;;;;;5096473;28;20192;-78
2022/12/13 11:04:59;;;;;;;9.70;6.45;;;1.50;99.90;;;;;;5099803;27;20295;-79
2022/12/13 11:07:29;;;;;;;10.40;8.60;;;1.50;99.90;;;;;;5097141;28;20206;-77
2022/12/13 11:09:59;;;;;;;13.60;8.02;;;1.60;99.90;;;;;;5098056;28;20204;-81
2022/12/13 11:12:34;;;;;;;10.13;7.45;;;1.80;99.90;;;;;;5100667;28;20200;-81
2022/12/13 11:15:05;;;;;;;11.50;7.68;;;1.70;99.90;;;;;;5104374;28;20202;-80
2022/12/13 11:17:38;;;;;;;11.23;7.38;;;1.80;99.90;;;;;;5099323;28;20222;-80
2022/12/13 11:20:15;;;;;;;11.98;6.97;;;1.00;99.90;;;;;;5102909;27;20278;-80
2022/12/13 11:22:44;;;;;;;11.73;7.68;;;1.10;99.90;;;;;;5095405;28;20261;-78
2022/12/13 11:25:21;;;;;;;8.95;6.60;;;0.60;99.90;;;;;;5106232;28;20275;-80
2022/12/13 11:28:06;;;;;;;12.45;6.85;;;0.70;99.90;;;;;;5100903;27;21047;-79
2022/12/13 11:31:03;;;;;;;7.60;6.40;;;0.70;99.90;;;;;;5097070;28;20192;-80
2022/12/13 11:33:42;;;;;;;11.23;7.40;;;0.50;99.90;;;;;;5108231;27;20215;-82
2022/12/13 11:36:26;;;;;;;9.93;7.03;;;0.50;99.90;;;;;;5102209;28;20195;-81
2022/12/13 11:39:07;;;;;;;10.07;7.28;;;0.50;99.90;;;;;;5094913;28;20305;-82
2022/12/13 11:41:38;;;;;;;8.35;5.40;;;0.60;99.90;;;;;;5103051;28;20194;-81
2022/12/13 11:44:15;;;;;;;12.15;7.55;;;0.30;99.90;;;;;;5102449;27;20238;-81
2022/12/13 11:46:45;;;;;;;8.85;6.30;;;0.20;99.90;;;;;;5101178;28;20240;-82
2022/12/13 11:49:17;;;;;;;8.50;6.28;;;0.70;99.90;;;;;;5098005;28;20222;-80
2022/12/13 11:51:51;;;;;;;9.98;6.18;;;0.70;99.90;;;;;;5100145;28;20837;-81
2022/12/13 11:54:28;;;;;;;11.45;7.18;;;0.90;99.90;;;;;;5096663;28;20232;-80
2022/12/13 11:56:59;;;;;;;11.00;7.18;;;1.10;99.90;;;;;;5102373;28;20256;-80
2022/12/13 11:59:36;;;;;;;11.45;8.45;;;1.20;99.90;;;;;;5103845;28;20228;-81
2022/12/13 12:02:16;;;;;;;8.95;6.07;;;1.20;99.90;;;;;;5104526;28;20196;-80
2022/12/13 12:04:48;;;;;;;9.82;6.80;;;1.10;99.90;;;;;;5102407;27;20215;-80
2022/12/13 12:07:29;;;;;;;7.88;5.88;;;1.00;99.90;;;;;;5103783;27;20201;-82
2022/12/13 12:10:15;;;;;;;11.77;7.88;;;1.20;99.90;;;;;;5097626;28;20226;-80
2022/12/13 12:12:49;;;;;;;9.38;7.15;;;1.20;99.90;;;;;;5098263;28;20206;-78
2022/12/13 12:15:22;;;;;;;10.85;6.40;;;1.20;99.90;;;;;;5091415;27;20720;-77
2022/12/13 12:17:55;;;;;;;11.35;7.30;;;1.20;99.90;;;;;;5091809;28;20199;-78
2022/12/13 12:20:35;;;;;;;12.30;7.65;;;1.10;99.90;;;;;;5096741;28;20200;-79
2022/12/13 12:23:09;;;;;;;9.90;7.45;;;1.40;99.90;;;;;;5097594;28;20233;-80
2022/12/13 12:25:44;;;;;;;11.15;7.80;;;1.30;99.90;;;;;;5090175;28;20209;-80
2022/12/13 12:28:23;;;;;;;9.07;7.78;;;1.40;99.90;;;;;;5090321;28;20202;-81
2022/12/13 12:31:06;;;;;;;14.40;6.85;;;1.40;99.90;;;;;;5095373;28;20187;-81
2022/12/13 12:33:43;;;;;;;12.35;6.05;;;1.30;99.90;;;;;;5099904;28;20207;-81
2022/12/13 12:36:40;;;;;;;11.43;7.20;;;1.50;99.90;;;;;;5099995;28;20258;-81
2022/12/13 12:39:38;;;;;;;8.15;6.13;;;1.50;99.90;;;;;;5100764;28;20864;-80
2022/12/13 12:42:26;;;;;;;8.13;6.20;;;1.40;99.90;;;;;;5083697;28;20220;-80
2022/12/13 12:45:14;;;;;;;10.10;5.75;;;1.20;99.90;;;;;;5100956;28;20216;-82
2022/12/13 12:48:16;;;;;;;11.80;7.20;;;1.50;99.90;;;;;;5104435;28;20206;-80
2022/12/13 12:51:07;;;;;;;11.73;8.77;;;1.40;99.90;;;;;;5098974;28;20220;-81
2022/12/13 12:53:41;;;;;;;10.07;7.63;;;1.50;99.90;;;;;;5097005;28;20226;-81
2022/12/13 12:56:22;;;;;;;9.60;7.57;;;1.40;99.90;;;;;;5096189;28;20199;-80
2022/12/13 12:58:56;;;;;;;9.18;5.82;;;1.40;99.90;;;;;;5094615;27;20260;-82
2022/12/13 13:01:42;;;;;;;10.45;6.20;;;1.20;99.90;;;;;;5095945;27;20207;-81
2022/12/13 13:04:18;;;;;;;10.52;6.95;;;1.20;99.90;;;;;;5093160;28;20221;-80
2022/12/13 13:06:56;;;;;;;9.00;5.80;;;1.30;99.90;;;;;;5101051;27;20685;-81
2022/12/13 13:09:30;;;;;;;15.80;8.00;;;1.30;99.90;;;;;;5092746;28;20216;-82
2022/12/13 13:12:02;;;;;;;15.25;8.98;;;1.30;99.90;;;;;;5091894;28;20206;-82